Time;durP1;ratioP1;P1;durP2;ratioP2;P2;SDS_P1;SDS_P2;PMS_P1;PMS_P2;Temp;Humidity;BMP_temperature;BMP_pressure;BME280_temperature;BME280_humidity;BME280_pressure;Samples;Min_cycle;Max_cycle;Signal;HPM_P1;HPM_P2
2023/04/23 00:01:13;;;;;;;;;;;11.80;84.80;;;;;;4986282;28;19921;-84
2023/04/23 00:03:42;;;;;;;;;;;11.80;85.10;;;;;;4983282;28;19961;-86
2023/04/23 00:06:34;;;;;;;;;;;11.80;85.40;;;;;;4974622;28;20000;-87
2023/04/23 00:09:00;;;;;;;;;;;11.90;85.60;;;;;;5001131;28;19914;-85
2023/04/23 00:11:26;;;;;;;;;;;11.80;86.30;;;;;;5008604;28;19921;-85
2023/04/23 00:13:51;;;;;;;;;;;11.80;86.00;;;;;;4986325;28;20387;-85
2023/04/23 00:16:18;;;;;;;;;;;11.80;86.20;;;;;;4985201;28;19958;-85
2023/04/23 00:18:43;;;;;;;;;;;11.80;86.20;;;;;;5004518;28;19917;-85
2023/04/23 00:21:14;;;;;;;;;;;11.80;86.00;;;;;;4985878;28;19925;-85
2023/04/23 00:23:42;;;;;;;;;;;11.80;86.20;;;;;;4982495;28;19913;-85
2023/04/23 00:26:10;;;;;;;;;;;11.90;86.70;;;;;;4988701;28;19918;-85
2023/04/23 00:28:36;;;;;;;;;;;11.80;86.80;;;;;;4989677;28;19922;-85
2023/04/23 00:31:01;;;;;;;;;;;11.80;86.60;;;;;;4988472;28;19913;-85
2023/04/23 00:33:29;;;;;;;;;;;11.80;86.60;;;;;;4989363;28;19945;-85
2023/04/23 00:35:55;;;;;;;;;;;11.80;86.40;;;;;;4999846;28;20766;-85
2023/04/23 00:38:25;;;;;;;;;;;11.70;86.10;;;;;;4987453;28;20009;-86
2023/04/23 00:40:59;;;;;;;;;;;11.80;86.20;;;;;;4979545;28;19949;-86
2023/04/23 00:43:29;;;;;;;;;;;11.70;86.20;;;;;;4978253;28;19918;-86
2023/04/23 00:46:01;;;;;;;;;;;11.70;86.50;;;;;;4976898;28;20020;-87
2023/04/23 00:48:32;;;;;;;;;;;11.80;86.50;;;;;;4982644;28;20389;-85
2023/04/23 00:50:59;;;;;;;;;;;11.70;86.50;;;;;;4982902;28;19925;-86
2023/04/23 00:53:25;;;;;;;;;;;11.70;86.30;;;;;;4984161;28;19957;-85
2023/04/23 00:55:51;;;;;;;;;;;11.70;86.70;;;;;;4983682;28;19945;-85
2023/04/23 00:58:20;;;;;;;;;;;11.70;86.80;;;;;;4991701;28;19949;-85
2023/04/23 01:00:54;;;;;;;;;;;11.60;86.60;;;;;;4990072;28;19940;-85
2023/04/23 01:03:55;;;;;;;;;;;;;;;;;;;;;
2023/04/23 01:06:28;;;;;;;;;;;11.60;86.90;;;;;;4990143;28;19917;-85
2023/04/23 01:11:50;;;;;;;;;;;11.60;87.00;;;;;;4984294;28;19914;-85
2023/04/23 01:14:16;;;;;;;;;;;11.60;87.10;;;;;;4981274;28;19917;-85
2023/04/23 01:16:41;;;;;;;;;;;11.60;87.30;;;;;;4997781;28;19928;-85
2023/04/23 01:19:08;;;;;;;;;;;11.60;87.30;;;;;;4994002;28;20355;-84
2023/04/23 01:21:34;;;;;;;;;;;11.60;87.20;;;;;;4990030;28;19936;-85
2023/04/23 01:24:00;;;;;;;;;;;11.70;87.30;;;;;;4984131;28;20656;-85
2023/04/23 01:26:26;;;;;;;;;;;11.60;87.30;;;;;;4986453;28;19924;-85
2023/04/23 01:28:51;;;;;;;;;;;11.60;87.40;;;;;;4990964;28;19925;-86
2023/04/23 01:34:21;;;;;;;;;;;11.60;87.30;;;;;;4987276;28;20024;-86
2023/04/23 01:36:46;;;;;;;;;;;11.60;87.30;;;;;;4976485;28;19980;-85
2023/04/23 01:39:12;;;;;;;;;;;11.60;87.50;;;;;;4986556;28;19921;-86
2023/04/23 01:41:38;;;;;;;;;;;11.70;87.50;;;;;;4987802;28;19953;-86
2023/04/23 01:44:04;;;;;;;;;;;11.60;87.40;;;;;;4994459;28;19921;-85
2023/04/23 01:46:30;;;;;;;;;;;11.60;87.50;;;;;;4994587;28;19914;-85
2023/04/23 01:48:55;;;;;;;;;;;11.60;87.80;;;;;;5006124;28;20305;-85
2023/04/23 01:51:22;;;;;;;;;;;11.60;87.80;;;;;;4988451;28;19949;-85
2023/04/23 01:53:48;;;;;;;;;;;11.50;88.00;;;;;;4984435;28;20496;-85
2023/04/23 01:56:14;;;;;;;;;;;11.50;88.10;;;;;;4986089;28;19977;-85
2023/04/23 01:58:40;;;;;;;;;;;11.50;88.20;;;;;;4994013;28;19914;-84
2023/04/23 02:01:05;;;;;;;;;;;11.50;88.30;;;;;;4987335;28;19915;-84
2023/04/23 02:03:32;;;;;;;;;;;11.50;88.20;;;;;;4981952;28;20400;-85
2023/04/23 02:05:59;;;;;;;;;;;11.50;88.10;;;;;;4992902;28;19918;-85
2023/04/23 02:08:25;;;;;;;;;;;11.50;88.20;;;;;;4990002;28;19914;-84
2023/04/23 02:10:50;;;;;;;;;;;11.40;88.00;;;;;;4983495;28;20393;-85
2023/04/23 02:13:16;;;;;;;;;;;11.30;88.40;;;;;;4991907;28;19925;-85
2023/04/23 02:15:42;;;;;;;;;;;11.30;88.70;;;;;;5002669;28;19917;-84
2023/04/23 02:18:07;;;;;;;;;;;11.30;88.60;;;;;;4991663;28;20250;-85
2023/04/23 02:20:35;;;;;;;;;;;11.30;88.50;;;;;;4983159;28;19937;-85
2023/04/23 02:23:01;;;;;;;;;;;11.20;88.50;;;;;;4991878;28;20328;-85
2023/04/23 02:25:26;;;;;;;;;;;11.20;88.50;;;;;;5000667;28;19914;-85
2023/04/23 02:27:51;;;;;;;;;;;11.20;88.60;;;;;;4992946;28;19918;-85
2023/04/23 02:30:17;;;;;;;;;;;11.20;88.30;;;;;;4980887;28;19921;-85
2023/04/23 02:32:42;;;;;;;;;;;11.20;88.60;;;;;;4991873;28;20009;-85
2023/04/23 02:35:09;;;;;;;;;;;11.20;88.50;;;;;;4984876;28;20338;-85
2023/04/23 02:37:35;;;;;;;;;;;11.20;88.50;;;;;;4994476;28;20341;-85
2023/04/23 02:40:02;;;;;;;;;;;11.20;88.30;;;;;;4995012;28;19913;-85
2023/04/23 02:42:28;;;;;;;;;;;11.10;88.40;;;;;;4994476;28;19922;-85
2023/04/23 02:44:53;;;;;;;;;;;11.10;88.50;;;;;;4979942;28;19964;-85
2023/04/23 02:47:19;;;;;;;;;;;11.10;88.60;;;;;;4984520;28;19918;-85
2023/04/23 02:49:44;;;;;;;;;;;11.10;88.40;;;;;;4990542;28;19921;-85
2023/04/23 02:52:10;;;;;;;;;;;11.10;88.20;;;;;;4991309;28;19921;-85
2023/04/23 02:54:35;;;;;;;;;;;11.10;87.90;;;;;;4983297;28;19909;-85
2023/04/23 02:57:02;;;;;;;;;;;11.10;87.80;;;;;;4994278;28;19914;-84
2023/04/23 02:59:27;;;;;;;;;;;11.20;87.80;;;;;;4979146;28;19960;-85
2023/04/23 03:01:53;;;;;;;;;;;11.10;87.70;;;;;;4987242;28;20001;-85
2023/04/23 03:04:19;;;;;;;;;;;11.00;87.60;;;;;;5000527;28;19933;-85
2023/04/23 03:06:44;;;;;;;;;;;10.80;87.60;;;;;;4991323;28;19925;-86
2023/04/23 03:09:11;;;;;;;;;;;10.80;88.00;;;;;;4983373;28;19918;-86
2023/04/23 03:11:36;;;;;;;;;;;10.80;87.90;;;;;;4981557;28;19917;-86
2023/04/23 03:14:02;;;;;;;;;;;10.90;88.00;;;;;;4985500;28;20328;-86
2023/04/23 03:16:28;;;;;;;;;;;10.80;88.30;;;;;;4989735;28;19922;-86
2023/04/23 03:18:54;;;;;;;;;;;10.90;88.30;;;;;;4991722;28;20005;-87
2023/04/23 03:21:19;;;;;;;;;;;10.90;88.00;;;;;;4986702;28;20008;-86
2023/04/23 03:23:45;;;;;;;;;;;10.80;87.80;;;;;;4990682;28;19914;-86
2023/04/23 03:26:10;;;;;;;;;;;10.80;88.10;;;;;;4992146;28;19990;-85
2023/04/23 03:28:36;;;;;;;;;;;10.70;88.20;;;;;;4989532;28;20449;-85
2023/04/23 03:31:01;;;;;;;;;;;10.70;88.40;;;;;;4984248;28;20029;-84
2023/04/23 03:33:27;;;;;;;;;;;10.70;88.20;;;;;;5003064;28;19916;-85
2023/04/23 03:35:52;;;;;;;;;;;10.60;88.20;;;;;;5003146;28;19914;-85
2023/04/23 03:38:18;;;;;;;;;;;10.60;88.50;;;;;;4993707;28;19925;-86
2023/04/23 03:40:44;;;;;;;;;;;10.70;88.50;;;;;;5018042;28;19914;-86
2023/04/23 03:43:09;;;;;;;;;;;10.70;88.70;;;;;;4991980;28;19921;-85
2023/04/23 03:45:35;;;;;;;;;;;10.80;88.50;;;;;;5005901;28;19918;-85
2023/04/23 03:48:00;;;;;;;;;;;10.80;88.20;;;;;;4991446;28;19914;-86
2023/04/23 03:50:26;;;;;;;;;;;10.70;88.30;;;;;;4997230;28;19914;-86
2023/04/23 03:52:51;;;;;;;;;;;10.70;88.20;;;;;;4987444;28;19918;-86
2023/04/23 03:55:19;;;;;;;;;;;10.70;88.40;;;;;;4997082;28;19994;-85
2023/04/23 03:57:44;;;;;;;;;;;10.60;88.50;;;;;;4988042;28;20369;-85
2023/04/23 04:00:13;;;;;;;;;;;10.60;88.60;;;;;;4982239;28;19914;-87
2023/04/23 04:02:39;;;;;;;;;;;10.60;88.40;;;;;;4983669;28;19917;-86
2023/04/23 04:05:05;;;;;;;;;;;10.60;88.60;;;;;;4983125;28;20383;-87
2023/04/23 04:07:31;;;;;;;;;;;10.50;88.90;;;;;;4979803;28;20005;-86
2023/04/23 04:09:56;;;;;;;;;;;10.60;88.70;;;;;;4980790;28;19921;-86
2023/04/23 04:12:24;;;;;;;;;;;10.60;89.00;;;;;;4986690;28;19965;-86
2023/04/23 04:14:52;;;;;;;;;;;10.60;89.00;;;;;;4982893;28;19949;-86
2023/04/23 04:17:18;;;;;;;;;;;10.60;88.80;;;;;;5034592;23;19925;-84
2023/04/23 04:19:43;;;;;;;;;;;10.70;89.00;;;;;;5037394;28;19940;-85
2023/04/23 04:22:09;;;;;;;;;;;10.80;88.90;;;;;;5037828;28;19952;-84
2023/04/23 04:24:34;;;;;;;;;;;10.80;88.80;;;;;;5046854;28;19920;-84
2023/04/23 04:27:00;;;;;;;;;;;10.70;88.40;;;;;;5049329;28;20028;-86
2023/04/23 04:29:26;;;;;;;;;;;10.60;88.20;;;;;;5050824;28;19999;-84
2023/04/23 04:31:52;;;;;;;;;;;10.60;88.40;;;;;;5064497;28;19948;-84
2023/04/23 04:34:19;;;;;;;;;;;10.70;88.50;;;;;;5053277;28;19913;-85
2023/04/23 04:36:44;;;;;;;;;;;10.80;88.50;;;;;;5041099;28;19975;-86
2023/04/23 04:39:12;;;;;;;;;;;10.90;88.50;;;;;;5041005;28;19913;-86
2023/04/23 04:41:38;;;;;;;;;;;10.90;88.40;;;;;;5051296;28;19981;-85
2023/04/23 04:44:04;;;;;;;;;;;10.90;88.60;;;;;;5052334;28;20520;-85
2023/04/23 04:46:30;;;;;;;;;;;10.90;88.30;;;;;;5055904;28;19917;-86
2023/04/23 04:48:56;;;;;;;;;;;10.90;88.30;;;;;;5047673;28;20310;-85
2023/04/23 04:51:21;;;;;;;;;;;10.80;88.30;;;;;;5048098;28;20005;-84
2023/04/23 04:53:47;;;;;;;;;;;10.90;88.30;;;;;;5057114;28;19923;-85
2023/04/23 04:56:12;;;;;;;;;;;10.90;88.20;;;;;;5043933;28;19913;-84
2023/04/23 04:58:38;;;;;;;;;;;10.80;88.40;;;;;;5051693;28;20389;-84
2023/04/23 05:01:04;;;;;;;;;;;10.90;88.10;;;;;;5034275;28;19913;-84
2023/04/23 05:03:30;;;;;;;;;;;10.90;88.10;;;;;;5035879;28;19952;-84
2023/04/23 05:05:57;;;;;;;;;;;10.90;88.10;;;;;;5034037;28;19959;-85
2023/04/23 05:08:22;;;;;;;;;;;11.00;87.90;;;;;;5040850;28;19913;-84
2023/04/23 05:10:49;;;;;;;;;;;10.90;88.00;;;;;;5050010;28;19918;-85
2023/04/23 05:13:15;;;;;;;;;;;10.80;88.10;;;;;;5058273;28;19909;-85
2023/04/23 05:15:40;;;;;;;;;;;10.80;87.90;;;;;;5042659;28;19923;-83
2023/04/23 05:18:08;;;;;;;;;;;10.80;87.90;;;;;;5048910;28;19929;-84
2023/04/23 05:20:34;;;;;;;;;;;10.80;87.70;;;;;;5041281;28;20007;-85
2023/04/23 05:23:01;;;;;;;;;;;10.90;87.70;;;;;;5050458;28;19956;-84
2023/04/23 05:25:26;;;;;;;;;;;10.90;87.40;;;;;;5045262;28;19916;-84
2023/04/23 05:27:52;;;;;;;;;;;10.90;87.10;;;;;;5046532;28;20401;-86
2023/04/23 05:30:17;;;;;;;;;;;10.90;87.10;;;;;;5052383;28;20307;-86
2023/04/23 05:32:43;;;;;;;;;;;11.00;86.90;;;;;;5055712;28;19917;-84
2023/04/23 05:35:08;;;;;;;;;;;11.00;87.00;;;;;;5043267;28;19914;-84
2023/04/23 05:37:34;;;;;;;;;;;11.00;86.80;;;;;;5036187;28;20437;-84
2023/04/23 05:40:01;;;;;;;;;;;11.10;86.40;;;;;;5045447;28;19915;-87
2023/04/23 05:42:26;;;;;;;;;;;11.20;86.00;;;;;;5043873;28;19921;-85
2023/04/23 05:44:52;;;;;;;;;;;11.30;86.00;;;;;;5042874;28;19959;-85
2023/04/23 05:47:17;;;;;;;;;;;11.40;86.00;;;;;;5058511;28;20290;-84
2023/04/23 05:49:43;;;;;;;;;;;11.70;85.90;;;;;;5058537;28;19921;-86
2023/04/23 05:52:08;;;;;;;;;;;12.30;84.50;;;;;;5048024;28;19913;-85
2023/04/23 05:54:34;;;;;;;;;;;13.20;81.50;;;;;;5064407;28;19948;-85
2023/04/23 05:57:00;;;;;;;;;;;13.80;79.60;;;;;;5040618;28;19998;-85
2023/04/23 05:59:25;;;;;;;;;;;14.70;76.80;;;;;;5035625;28;20006;-86
2023/04/23 06:01:51;;;;;;;;;;;14.90;74.80;;;;;;5052818;28;19916;-87
2023/04/23 06:04:16;;;;;;;;;;;14.80;74.20;;;;;;5062415;28;19970;-86
2023/04/23 06:06:42;;;;;;;;;;;14.50;75.50;;;;;;5045234;28;19922;-85
2023/04/23 06:09:08;;;;;;;;;;;14.30;76.00;;;;;;5044076;28;19913;-85
2023/04/23 06:11:34;;;;;;;;;;;14.10;77.10;;;;;;5040726;28;19920;-86
2023/04/23 06:14:03;;;;;;;;;;;14.10;77.90;;;;;;5041385;28;19913;-85
2023/04/23 06:16:29;;;;;;;;;;;14.10;78.40;;;;;;5068982;28;20713;-86
2023/04/23 06:18:57;;;;;;;;;;;14.30;77.90;;;;;;5051490;28;19920;-85
2023/04/23 06:21:23;;;;;;;;;;;14.40;77.00;;;;;;5053370;28;19921;-85
2023/04/23 06:23:49;;;;;;;;;;;14.20;77.40;;;;;;5049138;28;19925;-84
2023/04/23 06:26:14;;;;;;;;;;;14.00;78.10;;;;;;5053418;28;20011;-85
2023/04/23 06:28:44;;;;;;;;;;;13.70;79.10;;;;;;5041464;28;20386;-85
2023/04/23 06:31:10;;;;;;;;;;;13.50;80.30;;;;;;5046870;28;20374;-83
2023/04/23 06:33:36;;;;;;;;;;;13.50;80.60;;;;;;5035829;28;19913;-85
2023/04/23 06:36:04;;;;;;;;;;;13.50;79.90;;;;;;5043067;28;19936;-84
2023/04/23 06:38:30;;;;;;;;;;;13.50;80.00;;;;;;5050459;28;19968;-85
2023/04/23 06:40:55;;;;;;;;;;;13.60;80.70;;;;;;5042547;28;20491;-83
2023/04/23 06:43:21;;;;;;;;;;;13.60;80.60;;;;;;5044951;28;20034;-84
2023/04/23 06:45:46;;;;;;;;;;;13.50;80.70;;;;;;5051043;28;19923;-85
2023/04/23 06:48:12;;;;;;;;;;;13.60;80.60;;;;;;5061202;28;19905;-86
2023/04/23 06:50:38;;;;;;;;;;;13.70;80.00;;;;;;5056366;28;19916;-86
2023/04/23 06:53:04;;;;;;;;;;;13.80;79.70;;;;;;5061735;28;19936;-87
2023/04/23 06:55:30;;;;;;;;;;;13.70;79.90;;;;;;5071652;28;20362;-87
2023/04/23 06:57:55;;;;;;;;;;;13.80;80.10;;;;;;5062087;28;20274;-87
2023/04/23 07:00:21;;;;;;;;;;;13.70;80.30;;;;;;5059426;28;19908;-86
2023/04/23 07:02:47;;;;;;;;;;;13.70;80.50;;;;;;5069333;28;19922;-87
2023/04/23 07:05:12;;;;;;;;;;;13.70;80.10;;;;;;5050068;28;20389;-86
2023/04/23 07:07:39;;;;;;;;;;;13.90;80.20;;;;;;5045751;28;19939;-86
2023/04/23 07:10:05;;;;;;;;;;;14.00;79.40;;;;;;5062214;28;19935;-86
2023/04/23 07:12:31;;;;;;;;;;;14.00;78.70;;;;;;5056155;28;20422;-87
2023/04/23 07:14:56;;;;;;;;;;;14.00;79.00;;;;;;5038464;28;20048;-87
2023/04/23 07:17:22;;;;;;;;;;;14.00;78.10;;;;;;5042687;28;19995;-89
2023/04/23 07:19:47;;;;;;;;;;;14.00;78.10;;;;;;5043505;28;20306;-87
2023/04/23 07:22:13;;;;;;;;;;;14.00;78.60;;;;;;5047341;28;19929;-85
2023/04/23 07:24:38;;;;;;;;;;;14.00;79.10;;;;;;5038510;28;19917;-87
2023/04/23 07:27:04;;;;;;;;;;;14.10;78.90;;;;;;5047439;28;20000;-87
2023/04/23 07:29:30;;;;;;;;;;;14.30;78.20;;;;;;5043056;28;19909;-87
2023/04/23 07:31:55;;;;;;;;;;;14.40;78.50;;;;;;5056281;28;19917;-87
2023/04/23 07:34:21;;;;;;;;;;;14.40;77.80;;;;;;5045491;28;19985;-88
2023/04/23 07:36:46;;;;;;;;;;;14.40;77.10;;;;;;5041827;28;19996;-85
2023/04/23 07:39:12;;;;;;;;;;;14.50;77.40;;;;;;5031533;28;20307;-86
2023/04/23 07:41:38;;;;;;;;;;;14.60;77.10;;;;;;5042543;28;19916;-86
2023/04/23 07:44:03;;;;;;;;;;;14.50;77.20;;;;;;5050915;28;20496;-87
2023/04/23 07:46:29;;;;;;;;;;;14.40;76.70;;;;;;5051114;28;20464;-87
2023/04/23 07:48:54;;;;;;;;;;;14.30;77.20;;;;;;5052186;28;20282;-86
2023/04/23 07:51:21;;;;;;;;;;;14.20;78.10;;;;;;5060872;28;20371;-87
2023/04/23 07:53:49;;;;;;;;;;;14.20;78.30;;;;;;5052406;28;20012;-86
2023/04/23 07:56:15;;;;;;;;;;;14.20;78.40;;;;;;5051125;28;19916;-87
2023/04/23 07:58:41;;;;;;;;;;;14.20;78.40;;;;;;5036486;28;19914;-86
2023/04/23 08:01:06;;;;;;;;;;;14.30;78.20;;;;;;5035998;28;19925;-87
2023/04/23 08:03:32;;;;;;;;;;;14.50;77.60;;;;;;5063682;28;19959;-86
2023/04/23 08:05:57;;;;;;;;;;;14.50;77.30;;;;;;5069059;28;20358;-87
2023/04/23 08:08:23;;;;;;;;;;;14.50;76.20;;;;;;5055885;28;19952;-86
2023/04/23 08:10:48;;;;;;;;;;;14.60;76.80;;;;;;5051015;28;19909;-86
2023/04/23 08:13:13;;;;;;;;;;;14.70;76.60;;;;;;5039183;28;19909;-86
2023/04/23 08:15:39;;;;;;;;;;;14.70;75.50;;;;;;5053058;28;20015;-87
2023/04/23 08:18:05;;;;;;;;;;;14.70;75.30;;;;;;5062555;28;19927;-86
2023/04/23 08:20:31;;;;;;;;;;;14.80;75.10;;;;;;5071065;28;20370;-87
2023/04/23 08:22:56;;;;;;;;;;;14.80;74.90;;;;;;5071676;28;19923;-87
2023/04/23 08:25:22;;;;;;;;;;;14.80;75.50;;;;;;5071733;28;20369;-87
2023/04/23 08:27:48;;;;;;;;;;;14.80;75.20;;;;;;5071453;28;19916;-87
2023/04/23 08:30:13;;;;;;;;;;;14.90;74.10;;;;;;5070951;28;19916;-86
2023/04/23 08:32:42;;;;;;;;;;;15.00;75.50;;;;;;5057318;28;19913;-86
2023/04/23 08:35:08;;;;;;;;;;;15.10;74.80;;;;;;5051881;28;19952;-86
2023/04/23 08:37:33;;;;;;;;;;;15.30;74.40;;;;;;5051172;28;20421;-86
2023/04/23 08:39:59;;;;;;;;;;;15.40;73.50;;;;;;5048532;28;19913;-85
2023/04/23 08:42:29;;;;;;;;;;;15.30;73.40;;;;;;5030948;28;19909;-85
2023/04/23 08:44:55;;;;;;;;;;;15.40;72.90;;;;;;5031123;28;19909;-85
2023/04/23 08:47:23;;;;;;;;;;;15.50;73.30;;;;;;5031180;28;20409;-86
2023/04/23 08:49:52;;;;;;;;;;;15.60;73.20;;;;;;5034773;28;19963;-85
2023/04/23 08:52:21;;;;;;;;;;;16.00;72.10;;;;;;5088912;28;20002;-86
2023/04/23 08:54:48;;;;;;;;;;;16.10;70.70;;;;;;5071711;28;19908;-87
2023/04/23 08:57:15;;;;;;;;;;;16.20;70.30;;;;;;5067982;28;19954;-87
2023/04/23 08:59:41;;;;;;;;;;;16.40;70.20;;;;;;5051484;28;20007;-85
2023/04/23 09:02:08;;;;;;;;;;;16.30;68.90;;;;;;5052754;28;20441;-86
2023/04/23 09:04:34;;;;;;;;;;;16.40;68.80;;;;;;5050082;28;20345;-86
2023/04/23 09:07:00;;;;;;;;;;;16.60;68.90;;;;;;5031811;28;19913;-86
2023/04/23 09:09:28;;;;;;;;;;;16.60;68.20;;;;;;5030074;28;21603;-86
2023/04/23 09:11:57;;;;;;;;;;;16.70;68.40;;;;;;5037783;28;19956;-86
2023/04/23 09:14:25;;;;;;;;;;;16.70;68.60;;;;;;5050650;28;20275;-87
2023/04/23 09:16:51;;;;;;;;;;;16.70;68.20;;;;;;5050849;28;20530;-87
2023/04/23 09:19:17;;;;;;;;;;;16.60;68.10;;;;;;5050353;28;19952;-84
2023/04/23 09:21:43;;;;;;;;;;;16.50;68.30;;;;;;5066057;28;19913;-87
2023/04/23 09:24:12;;;;;;;;;;;16.50;68.00;;;;;;5032349;28;19913;-86
2023/04/23 09:26:43;;;;;;;;;;;16.30;68.80;;;;;;5030803;28;20412;-86
2023/04/23 09:29:12;;;;;;;;;;;16.20;68.90;;;;;;5049550;28;19912;-87
2023/04/23 09:31:38;;;;;;;;;;;16.20;68.70;;;;;;5051055;28;20333;-87
2023/04/23 09:34:03;;;;;;;;;;;16.30;68.30;;;;;;5051072;28;19919;-86
2023/04/23 09:36:30;;;;;;;;;;;16.30;68.60;;;;;;5065815;28;19975;-87
2023/04/23 09:38:57;;;;;;;;;;;16.30;68.70;;;;;;5042719;28;20042;-87
2023/04/23 09:41:26;;;;;;;;;;;16.60;69.30;;;;;;5065998;28;19909;-86
2023/04/23 09:43:55;;;;;;;;;;;16.90;67.50;;;;;;5035462;28;19920;-86
2023/04/23 09:46:36;;;;;;;;;;;17.10;66.20;;;;;;5054259;28;19913;-87
2023/04/23 09:49:02;;;;;;;;;;;17.30;65.50;;;;;;5050709;28;19915;-86
2023/04/23 09:51:28;;;;;;;;;;;17.30;64.70;;;;;;5051127;28;19909;-86
2023/04/23 09:53:54;;;;;;;;;;;17.40;63.90;;;;;;5052421;28;20299;-85
2023/04/23 09:56:20;;;;;;;;;;;17.60;63.80;;;;;;5045285;28;19916;-86
2023/04/23 09:58:45;;;;;;;;;;;17.50;63.90;;;;;;5031295;28;20282;-86
2023/04/23 10:01:14;;;;;;;;;;;17.30;64.00;;;;;;5061184;28;19913;-87
2023/04/23 10:03:42;;;;;;;;;;;17.40;63.40;;;;;;5034385;28;19913;-87
2023/04/23 10:06:17;;;;;;;;;;;17.40;62.40;;;;;;5034158;28;19967;-86
2023/04/23 10:08:43;;;;;;;;;;;17.40;62.20;;;;;;5048451;28;19920;-86
2023/04/23 10:11:09;;;;;;;;;;;17.50;63.00;;;;;;5067212;28;19912;-86
2023/04/23 10:13:35;;;;;;;;;;;17.70;62.80;;;;;;5052383;28;20341;-87
2023/04/23 10:16:01;;;;;;;;;;;17.80;62.30;;;;;;5054255;28;19959;-86
2023/04/23 10:18:28;;;;;;;;;;;17.80;61.80;;;;;;5059205;23;19978;-86
2023/04/23 10:20:54;;;;;;;;;;;17.80;60.90;;;;;;5035906;28;19913;-85
2023/04/23 10:23:20;;;;;;;;;;;17.80;62.10;;;;;;5044153;28;19919;-86
2023/04/23 10:25:46;;;;;;;;;;;17.80;61.40;;;;;;5043258;28;20390;-84
2023/04/23 10:28:13;;;;;;;;;;;17.80;61.30;;;;;;5048983;28;20386;-85
2023/04/23 10:30:39;;;;;;;;;;;17.90;60.30;;;;;;5054202;28;19908;-85
2023/04/23 10:33:05;;;;;;;;;;;18.10;59.40;;;;;;5054283;28;19920;-86
2023/04/23 10:35:32;;;;;;;;;;;18.10;58.80;;;;;;5065793;28;19953;-85
2023/04/23 10:37:58;;;;;;;;;;;17.90;59.80;;;;;;5068161;28;19920;-85
2023/04/23 10:40:27;;;;;;;;;;;17.90;59.30;;;;;;5069982;28;20294;-85
2023/04/23 10:42:54;;;;;;;;;;;17.90;59.30;;;;;;5070693;28;19917;-85
2023/04/23 10:45:20;;;;;;;;;;;18.10;58.80;;;;;;5071177;28;19931;-86
2023/04/23 10:47:45;;;;;;;;;;;18.20;59.50;;;;;;5055659;28;20375;-85
2023/04/23 10:50:17;;;;;;;;;;;18.40;58.60;;;;;;5056609;28;20333;-84
2023/04/23 10:52:45;;;;;;;;;;;18.70;58.10;;;;;;5085189;28;19908;-81
2023/04/23 10:55:15;;;;;;;;;;;18.60;57.80;;;;;;5077758;28;19909;-84
2023/04/23 10:57:57;;;;;;;;;;;18.70;56.70;;;;;;5058962;28;19913;-85
2023/04/23 11:00:23;;;;;;;;;;;18.70;57.80;;;;;;5058173;28;19916;-85
2023/04/23 11:02:49;;;;;;;;;;;18.60;57.80;;;;;;5054423;28;19913;-85
2023/04/23 11:05:15;;;;;;;;;;;18.80;59.00;;;;;;5061779;28;19919;-84
2023/04/23 11:07:40;;;;;;;;;;;18.80;55.80;;;;;;5074793;28;19913;-83
2023/04/23 11:10:13;;;;;;;;;;;18.70;56.60;;;;;;5094356;28;19965;-84
2023/04/23 11:12:39;;;;;;;;;;;18.60;56.80;;;;;;5086628;28;19909;-85
2023/04/23 11:15:15;;;;;;;;;;;18.50;57.00;;;;;;5050118;28;19910;-85
2023/04/23 11:17:43;;;;;;;;;;;18.60;55.50;;;;;;5050044;28;19917;-87
2023/04/23 11:20:10;;;;;;;;;;;18.60;55.50;;;;;;5049447;28;19948;-86
2023/04/23 11:22:37;;;;;;;;;;;18.40;55.20;;;;;;5057833;28;19968;-85
2023/04/23 11:25:04;;;;;;;;;;;18.40;55.90;;;;;;5064135;28;19908;-86
2023/04/23 11:27:30;;;;;;;;;;;18.40;55.80;;;;;;5080966;28;20436;-85
2023/04/23 11:29:56;;;;;;;;;;;18.40;55.60;;;;;;5079903;28;20340;-85
2023/04/23 11:32:22;;;;;;;;;;;18.50;56.00;;;;;;5073280;28;19954;-84
2023/04/23 11:34:49;;;;;;;;;;;18.60;57.20;;;;;;5072409;28;20374;-85
2023/04/23 11:37:16;;;;;;;;;;;18.60;55.80;;;;;;5075288;28;19908;-86
2023/04/23 11:39:42;;;;;;;;;;;18.70;57.60;;;;;;5061363;28;20016;-86
2023/04/23 11:42:12;;;;;;;;;;;18.70;56.70;;;;;;5070804;28;19954;-85
2023/04/23 11:44:38;;;;;;;;;;;18.90;54.40;;;;;;5055298;28;19948;-86
2023/04/23 11:47:05;;;;;;;;;;;18.90;55.20;;;;;;5062223;28;19923;-86
2023/04/23 11:49:31;;;;;;;;;;;19.00;55.60;;;;;;5071500;28;20421;-85
2023/04/23 11:51:58;;;;;;;;;;;18.90;54.90;;;;;;5053362;28;20011;-86
2023/04/23 11:54:27;;;;;;;;;;;19.10;54.40;;;;;;5070039;28;20076;-86
2023/04/23 11:56:53;;;;;;;;;;;19.10;54.40;;;;;;5050741;28;19936;-85
2023/04/23 11:59:18;;;;;;;;;;;19.20;54.20;;;;;;5032709;28;19909;-86
2023/04/23 12:01:45;;;;;;;;;;;19.30;54.80;;;;;;5032914;28;19916;-86
2023/04/23 12:04:21;;;;;;;;;;;19.30;54.10;;;;;;5032458;28;19917;-85
2023/04/23 12:06:47;;;;;;;;;;;19.10;54.30;;;;;;5032667;28;19920;-85
2023/04/23 12:09:13;;;;;;;;;;;19.00;54.00;;;;;;5054363;28;19913;-86
2023/04/23 12:11:43;;;;;;;;;;;18.80;54.20;;;;;;5067098;28;19966;-84
2023/04/23 12:14:09;;;;;;;;;;;18.80;54.90;;;;;;5051016;28;19909;-86
2023/04/23 12:16:42;;;;;;;;;;;18.80;54.50;;;;;;5032984;28;19915;-86
2023/04/23 12:19:21;;;;;;;;;;;18.80;52.90;;;;;;5046869;28;19921;-87
2023/04/23 12:21:53;;;;;;;;;;;18.70;53.00;;;;;;5034604;28;19920;-86
2023/04/23 12:24:19;;;;;;;;;;;18.70;54.00;;;;;;5030984;28;19912;-85
2023/04/23 12:26:50;;;;;;;;;;;18.60;53.70;;;;;;5036648;28;19939;-85
2023/04/23 12:29:16;;;;;;;;;;;18.60;52.90;;;;;;5049508;28;19960;-86
2023/04/23 12:31:43;;;;;;;;;;;18.40;53.60;;;;;;5045941;28;19919;-85
2023/04/23 12:34:09;;;;;;;;;;;18.40;53.60;;;;;;5049075;28;20363;-87
2023/04/23 12:36:35;;;;;;;;;;;18.30;55.20;;;;;;5046319;28;20293;-87
2023/04/23 12:39:20;;;;;;;;;;;18.40;55.90;;;;;;5049179;28;19913;-88
2023/04/23 12:41:46;;;;;;;;;;;18.50;54.50;;;;;;5057797;28;19920;-88
2023/04/23 12:44:12;;;;;;;;;;;18.60;55.80;;;;;;5046742;28;19912;-85
2023/04/23 12:47:07;;;;;;;;;;;;;;;;;;;;;
2023/04/23 12:49:52;;;;;;;;;;;;;;;;;;;;;
2023/04/23 12:55:58;;;;;;;;;;;18.90;53.90;;;;;;5028796;28;20007;-86
2023/04/23 12:59:04;;;;;;;;;;;;;;;;;;;;;
2023/04/23 13:04:40;;;;;;;;;;;19.40;50.00;;;;;;5047045;28;20270;-86
2023/04/23 13:08:03;;;;;;;;;;;;;;;;;;;;;
2023/04/23 13:10:37;;;;;;;;;;;19.60;48.50;;;;;;5056179;28;19920;-85
2023/04/23 13:13:14;;;;;;;;;;;19.40;49.70;;;;;;5049457;28;19920;-88
2023/04/23 13:15:52;;;;;;;;;;;19.30;48.10;;;;;;5057980;28;19913;-84
2023/04/23 13:18:29;;;;;;;;;;;19.40;47.20;;;;;;5072886;28;19972;-85
2023/04/23 13:20:57;;;;;;;;;;;19.50;48.00;;;;;;5073198;28;19912;-85
2023/04/23 13:23:22;;;;;;;;;;;19.40;49.80;;;;;;5053495;28;20038;-85
2023/04/23 13:25:48;;;;;;;;;;;19.40;51.10;;;;;;5053518;28;19940;-87
2023/04/23 13:28:13;;;;;;;;;;;19.30;50.50;;;;;;5056066;28;19920;-86
2023/04/23 13:30:41;;;;;;;;;;;19.30;49.70;;;;;;5052191;28;20524;-87
2023/04/23 13:33:07;;;;;;;;;;;19.30;48.50;;;;;;5055625;28;20346;-87
2023/04/23 13:35:36;;;;;;;;;;;19.30;47.70;;;;;;5062711;28;19940;-89
2023/04/23 13:38:07;;;;;;;;;;;19.50;46.30;;;;;;5057479;28;19918;-90
2023/04/23 13:40:32;;;;;;;;;;;19.50;45.70;;;;;;5060883;28;20333;-85
2023/04/23 13:42:58;;;;;;;;;;;19.60;46.10;;;;;;5068238;28;19920;-87
2023/04/23 13:45:26;;;;;;;;;;;19.70;47.10;;;;;;5059451;28;19931;-86
2023/04/23 13:47:51;;;;;;;;;;;19.80;46.70;;;;;;5054581;28;19948;-86
2023/04/23 13:50:17;;;;;;;;;;;19.80;47.30;;;;;;5063937;28;19912;-85
2023/04/23 13:52:43;;;;;;;;;;;19.50;49.40;;;;;;5064077;28;19965;-83
2023/04/23 13:55:09;;;;;;;;;;;19.20;48.80;;;;;;5056000;28;20003;-87
2023/04/23 13:57:34;;;;;;;;;;;19.10;49.70;;;;;;5064058;28;19977;-87
2023/04/23 14:00:00;;;;;;;;;;;19.30;49.50;;;;;;5060297;28;20640;-87
2023/04/23 14:02:28;;;;;;;;;;;19.20;50.50;;;;;;5055344;28;19912;-87
2023/04/23 14:04:54;;;;;;;;;;;19.20;47.90;;;;;;5051479;28;20338;-88
2023/04/23 14:07:19;;;;;;;;;;;19.40;47.80;;;;;;5040786;28;20012;-85
2023/04/23 14:09:46;;;;;;;;;;;19.60;48.30;;;;;;5055782;28;20019;-85
2023/04/23 14:12:14;;;;;;;;;;;19.50;47.20;;;;;;5068476;28;19984;-85
2023/04/23 14:14:40;;;;;;;;;;;19.50;45.40;;;;;;5065577;28;19939;-84
2023/04/23 14:17:13;;;;;;;;;;;19.50;45.50;;;;;;5061733;28;20008;-85
2023/04/23 14:29:02;;;;;;;;;;;19.10;45.00;;;;;;5062397;23;19940;-80
2023/04/23 14:31:29;;;;;;;;;;;19.00;45.40;;;;;;5067899;28;19943;-80
2023/04/23 14:33:58;;;;;;;;;;;19.10;45.30;;;;;;5063530;28;19927;-81
2023/04/23 14:36:23;;;;;;;;;;;19.10;46.10;;;;;;5062524;28;19913;-80
2023/04/23 14:38:49;;;;;;;;;;;19.10;44.50;;;;;;5037368;28;19976;-80
2023/04/23 14:41:14;;;;;;;;;;;19.20;45.60;;;;;;5026633;28;19924;-82
2023/04/23 14:43:40;;;;;;;;;;;19.20;45.40;;;;;;5032107;28;19913;-82